Time;durP1;ratioP1;P1;durP2;ratioP2;P2;SDS_P1;SDS_P2;PMS_P1;PMS_P2;Temp;Humidity;BMP_temperature;BMP_pressure;BME280_temperature;BME280_humidity;BME280_pressure;Samples;Min_cycle;Max_cycle;Signal;HPM_P1;HPM_P2
2023/03/26 00:01:09;;;;;;;2.88;1.33;;;6.60;99.90;;;;;;4991400;28;20234;-71
2023/03/26 00:03:37;;;;;;;1.65;1.30;;;6.50;99.90;;;;;;4992067;28;20200;-72
2023/03/26 00:06:07;;;;;;;2.25;1.10;;;6.50;99.90;;;;;;4990922;28;20215;-71
2023/03/26 00:08:35;;;;;;;3.13;1.45;;;6.50;99.90;;;;;;4991085;28;20596;-72
2023/03/26 00:11:02;;;;;;;1.98;1.17;;;6.50;99.90;;;;;;5007950;28;20720;-71
2023/03/26 00:13:30;;;;;;;1.30;1.17;;;6.50;99.90;;;;;;5011113;28;20669;-71
2023/03/26 00:15:57;;;;;;;2.30;1.00;;;6.50;99.90;;;;;;5010841;28;20612;-71
2023/03/26 00:18:29;;;;;;;1.42;1.30;;;6.50;99.90;;;;;;5009992;28;20206;-71
2023/03/26 00:20:55;;;;;;;2.03;1.20;;;6.60;99.90;;;;;;5011058;28;20648;-71
2023/03/26 00:23:22;;;;;;;1.52;1.20;;;6.60;99.90;;;;;;5010029;28;20209;-71
2023/03/26 00:25:50;;;;;;;2.20;0.90;;;6.70;99.90;;;;;;5010486;28;20672;-71
2023/03/26 00:28:20;;;;;;;2.00;1.23;;;6.60;99.90;;;;;;5010161;28;20209;-72
2023/03/26 00:33:22;;;;;;;3.25;1.30;;;6.70;99.90;;;;;;5094586;22;20236;-75
2023/03/26 00:35:53;;;;;;;1.20;1.00;;;6.70;99.90;;;;;;5050949;28;20508;-75
2023/03/26 00:38:21;;;;;;;1.10;0.98;;;6.60;99.90;;;;;;5050171;28;20208;-76
2023/03/26 00:40:49;;;;;;;1.60;1.13;;;6.60;99.90;;;;;;5050893;28;20217;-75
2023/03/26 00:43:18;;;;;;;1.83;1.25;;;6.60;99.90;;;;;;5050605;28;20698;-75
2023/03/26 00:45:46;;;;;;;1.77;1.10;;;6.60;99.90;;;;;;5051831;28;20265;-75
2023/03/26 00:48:14;;;;;;;1.10;1.00;;;6.60;99.90;;;;;;5051266;28;20220;-75
2023/03/26 00:50:41;;;;;;;2.00;1.20;;;6.60;99.90;;;;;;5053569;28;20217;-76
2023/03/26 00:53:10;;;;;;;3.45;1.20;;;6.60;99.90;;;;;;5053716;28;20209;-75
2023/03/26 00:55:39;;;;;;;1.13;0.95;;;6.60;99.90;;;;;;5037453;28;20255;-76
2023/03/26 00:58:08;;;;;;;6.25;1.77;;;6.60;99.90;;;;;;5035988;28;20201;-76
2023/03/26 01:00:47;;;;;;;1.27;1.17;;;6.60;99.90;;;;;;5035499;28;20649;-75
2023/03/26 01:03:17;;;;;;;1.27;1.02;;;6.60;99.90;;;;;;5052745;28;20208;-75
2023/03/26 01:05:47;;;;;;;2.40;1.27;;;6.60;99.90;;;;;;5051287;28;20594;-75
2023/03/26 01:08:24;;;;;;;4.45;1.42;;;6.60;99.90;;;;;;5056453;28;20225;-75
2023/03/26 01:10:52;;;;;;;1.30;0.90;;;6.60;99.90;;;;;;5053847;28;20220;-76
2023/03/26 01:13:20;;;;;;;2.67;1.45;;;6.50;99.90;;;;;;5052776;28;20212;-76
2023/03/26 01:15:49;;;;;;;2.50;1.50;;;6.50;99.90;;;;;;5033152;28;20198;-76
2023/03/26 01:18:19;;;;;;;1.40;1.30;;;6.50;99.90;;;;;;5032222;28;20205;-76
2023/03/26 01:20:49;;;;;;;1.90;1.00;;;6.50;99.90;;;;;;5032037;28;20225;-76
2023/03/26 01:23:22;;;;;;;2.00;1.10;;;6.50;99.90;;;;;;5031878;28;20292;-76
2023/03/26 01:26:02;;;;;;;2.03;1.17;;;6.50;99.90;;;;;;5031085;28;20201;-75
2023/03/26 01:28:33;;;;;;;3.70;1.48;;;6.50;99.90;;;;;;5031215;28;20197;-74
2023/03/26 01:31:08;;;;;;;1.25;1.15;;;6.50;99.90;;;;;;5030592;28;20332;-75
2023/03/26 01:33:39;;;;;;;1.88;1.10;;;6.50;99.90;;;;;;5031829;28;20221;-75
2023/03/26 01:36:15;;;;;;;2.03;1.17;;;6.40;99.90;;;;;;5031500;28;20639;-75
2023/03/26 01:38:49;;;;;;;1.25;1.15;;;6.50;99.90;;;;;;5051202;28;20200;-74
2023/03/26 01:41:23;;;;;;;3.65;1.33;;;6.50;99.90;;;;;;5050804;28;20224;-75
2023/03/26 01:43:54;;;;;;;1.33;1.00;;;6.50;99.90;;;;;;5051428;28;20204;-75
2023/03/26 01:46:24;;;;;;;2.47;1.00;;;6.50;99.90;;;;;;5050681;28;20197;-76
2023/03/26 01:48:51;;;;;;;1.25;1.15;;;6.50;99.90;;;;;;5051067;28;20280;-76
2023/03/26 01:51:27;;;;;;;3.15;1.35;;;6.50;99.90;;;;;;5050362;28;20221;-76
2023/03/26 01:53:57;;;;;;;1.40;1.30;;;6.50;99.90;;;;;;5050614;28;20197;-76
2023/03/26 01:56:32;;;;;;;2.08;1.38;;;6.50;99.90;;;;;;5031110;28;20209;-75
2023/03/26 01:59:15;;;;;;;2.85;1.45;;;6.50;99.90;;;;;;5030433;28;20859;-76
2023/03/26 02:01:47;;;;;;;1.48;1.17;;;6.50;99.90;;;;;;5030616;28;20855;-75
2023/03/26 02:04:24;;;;;;;1.15;0.90;;;6.50;99.90;;;;;;5030388;28;20217;-76
2023/03/26 02:06:57;;;;;;;1.20;1.10;;;6.50;99.90;;;;;;5029903;28;20236;-76
2023/03/26 02:09:27;;;;;;;3.80;1.30;;;6.40;99.90;;;;;;5030084;28;20222;-75
2023/03/26 02:11:56;;;;;;;2.53;1.45;;;6.40;99.90;;;;;;5030753;28;20220;-75
2023/03/26 02:14:23;;;;;;;2.53;1.50;;;6.40;99.90;;;;;;5030423;28;20206;-76
2023/03/26 02:16:50;;;;;;;2.25;1.40;;;6.50;99.90;;;;;;5030851;28;20202;-75
2023/03/26 02:19:20;;;;;;;5.78;1.35;;;6.50;99.90;;;;;;5030084;28;20253;-76
2023/03/26 02:21:50;;;;;;;2.10;1.20;;;6.40;99.90;;;;;;5030761;28;20210;-75
2023/03/26 02:24:17;;;;;;;2.25;0.93;;;6.40;99.90;;;;;;5029938;28;20288;-75
2023/03/26 02:26:44;;;;;;;8.32;1.83;;;6.40;99.90;;;;;;5029750;28;20225;-75
2023/03/26 02:29:13;;;;;;;2.45;1.20;;;6.40;99.90;;;;;;5030090;28;20263;-76
2023/03/26 02:31:40;;;;;;;4.07;1.42;;;6.40;99.90;;;;;;5030323;28;20202;-75
2023/03/26 02:34:07;;;;;;;2.17;1.38;;;6.40;99.90;;;;;;5030228;28;20276;-75
2023/03/26 02:36:34;;;;;;;1.10;1.00;;;6.40;99.90;;;;;;5029551;28;20836;-75
2023/03/26 02:39:01;;;;;;;2.90;1.30;;;6.40;99.90;;;;;;5029452;28;20202;-75
2023/03/26 02:41:28;;;;;;;2.05;1.15;;;6.40;99.90;;;;;;5029568;28;20202;-75
2023/03/26 02:43:54;;;;;;;4.10;1.50;;;6.30;99.90;;;;;;5030012;28;20217;-73
2023/03/26 02:46:22;;;;;;;2.70;1.40;;;6.30;99.90;;;;;;5029523;28;20566;-74
2023/03/26 02:48:49;;;;;;;3.13;1.45;;;6.40;99.90;;;;;;5032722;28;20297;-74
2023/03/26 02:51:17;;;;;;;2.42;1.60;;;6.40;99.90;;;;;;5033308;28;20256;-75
2023/03/26 02:53:43;;;;;;;2.67;1.13;;;6.40;99.90;;;;;;5032877;28;20205;-74
2023/03/26 02:56:11;;;;;;;1.83;1.05;;;6.40;99.90;;;;;;5033227;28;20210;-74
2023/03/26 02:58:38;;;;;;;3.25;1.00;;;6.50;99.90;;;;;;5033224;28;20223;-74
2023/03/26 03:01:05;;;;;;;1.10;0.88;;;6.50;99.90;;;;;;5033017;28;20225;-75
2023/03/26 03:03:35;;;;;;;1.10;1.00;;;6.40;99.90;;;;;;5032831;28;20198;-73
2023/03/26 03:06:01;;;;;;;2.08;0.90;;;6.40;99.90;;;;;;5033064;28;20225;-75
2023/03/26 03:08:28;;;;;;;1.17;0.90;;;6.40;99.90;;;;;;5032205;28;20217;-75
2023/03/26 03:10:57;;;;;;;1.30;1.20;;;6.40;99.90;;;;;;5032764;28;20214;-75
2023/03/26 03:13:24;;;;;;;2.90;1.33;;;6.40;99.90;;;;;;5032613;28;20209;-75
2023/03/26 03:15:51;;;;;;;1.67;1.38;;;6.40;99.90;;;;;;5032902;28;20288;-74
2023/03/26 03:18:18;;;;;;;2.20;0.90;;;6.40;99.90;;;;;;5032240;28;20205;-75
2023/03/26 03:20:46;;;;;;;1.77;1.27;;;6.40;99.90;;;;;;5032854;28;20428;-74
2023/03/26 03:23:13;;;;;;;2.67;1.35;;;6.40;99.90;;;;;;5041357;28;20644;-74
2023/03/26 03:25:40;;;;;;;1.48;1.17;;;6.50;99.90;;;;;;5052324;28;20302;-75
2023/03/26 03:28:08;;;;;;;1.65;1.10;;;6.50;99.90;;;;;;5052092;28;20232;-74
2023/03/26 03:30:35;;;;;;;3.45;1.42;;;6.50;99.90;;;;;;5051998;28;20231;-74
2023/03/26 03:33:02;;;;;;;3.53;1.33;;;6.50;99.90;;;;;;5052300;28;20197;-75
2023/03/26 03:35:29;;;;;;;1.90;1.30;;;6.50;99.90;;;;;;5051668;28;20201;-74
2023/03/26 03:37:58;;;;;;;1.50;1.30;;;6.40;99.90;;;;;;5051758;28;20205;-74
2023/03/26 03:40:25;;;;;;;1.17;1.08;;;6.40;99.90;;;;;;5051853;28;20229;-75
2023/03/26 03:42:52;;;;;;;2.15;1.33;;;6.40;99.90;;;;;;5052272;28;20563;-75
2023/03/26 03:45:19;;;;;;;1.42;1.02;;;6.40;99.90;;;;;;5051636;28;20555;-73
2023/03/26 03:47:45;;;;;;;1.40;1.23;;;6.40;99.90;;;;;;5052151;28;20217;-74
2023/03/26 03:50:12;;;;;;;2.08;1.13;;;6.40;99.90;;;;;;5052013;28;20221;-72
2023/03/26 03:52:39;;;;;;;2.42;1.13;;;6.40;99.90;;;;;;5051495;28;20318;-73
2023/03/26 03:55:09;;;;;;;2.22;1.52;;;6.40;99.90;;;;;;5051977;28;20228;-74
2023/03/26 03:57:36;;;;;;;3.28;1.38;;;6.40;99.90;;;;;;5051545;28;20648;-74
2023/03/26 04:00:06;;;;;;;3.75;1.55;;;6.50;99.90;;;;;;5045384;28;20747;-74
2023/03/26 04:02:34;;;;;;;2.25;1.42;;;6.50;99.90;;;;;;5031701;28;20208;-73
2023/03/26 04:05:01;;;;;;;2.92;1.30;;;6.50;99.90;;;;;;5032089;28;20256;-74
2023/03/26 04:07:31;;;;;;;2.10;1.30;;;6.50;99.90;;;;;;5031263;28;20221;-74
2023/03/26 04:10:00;;;;;;;1.50;1.40;;;6.50;99.90;;;;;;5031881;28;20237;-73
2023/03/26 04:12:30;;;;;;;1.05;0.95;;;6.50;99.90;;;;;;5031779;28;20634;-75
2023/03/26 04:14:57;;;;;;;1.73;1.63;;;6.60;99.90;;;;;;5031569;28;20200;-74
2023/03/26 04:17:24;;;;;;;2.25;0.90;;;6.60;99.90;;;;;;5030890;28;20225;-74
2023/03/26 04:19:53;;;;;;;1.30;1.10;;;6.60;99.90;;;;;;5036637;28;20559;-74
2023/03/26 04:22:20;;;;;;;3.33;1.20;;;6.60;99.90;;;;;;5050800;28;20209;-72
2023/03/26 04:24:48;;;;;;;1.95;1.27;;;6.70;99.90;;;;;;5054254;28;20225;-74
2023/03/26 04:27:19;;;;;;;4.45;1.60;;;6.70;99.90;;;;;;5052099;28;20232;-73
2023/03/26 04:29:49;;;;;;;1.65;1.17;;;6.70;99.90;;;;;;5051970;28;20236;-74
2023/03/26 04:32:21;;;;;;;2.25;1.65;;;6.70;99.90;;;;;;5051329;28;20682;-74
2023/03/26 04:34:48;;;;;;;2.13;1.13;;;6.70;99.90;;;;;;5052039;28;20276;-74
2023/03/26 04:37:23;;;;;;;2.00;1.00;;;6.70;99.90;;;;;;5051064;28;20210;-74
2023/03/26 04:39:50;;;;;;;2.13;1.10;;;6.80;99.90;;;;;;5051355;28;20231;-74
2023/03/26 04:42:18;;;;;;;5.40;1.35;;;6.70;99.90;;;;;;5051364;28;20569;-74
2023/03/26 04:44:49;;;;;;;2.30;1.30;;;6.70;99.90;;;;;;5039257;28;20975;-74
2023/03/26 04:47:17;;;;;;;1.63;1.35;;;6.70;99.90;;;;;;5031038;28;20297;-74
2023/03/26 04:49:44;;;;;;;1.98;1.15;;;6.70;99.90;;;;;;5031255;28;20218;-74
2023/03/26 04:52:11;;;;;;;1.55;1.30;;;6.70;99.90;;;;;;5031463;28;20201;-74
2023/03/26 04:54:38;;;;;;;1.85;1.42;;;6.60;99.90;;;;;;5031109;28;20688;-74
2023/03/26 04:57:12;;;;;;;3.85;1.30;;;6.60;99.90;;;;;;5030890;28;20208;-74
2023/03/26 04:59:40;;;;;;;3.72;1.30;;;6.60;99.90;;;;;;5030743;28;20220;-74
2023/03/26 05:02:08;;;;;;;3.05;1.65;;;6.60;99.90;;;;;;5031508;28;20208;-74
2023/03/26 05:04:37;;;;;;;6.28;1.48;;;6.60;99.90;;;;;;5031247;28;20644;-73
2023/03/26 05:07:04;;;;;;;3.55;1.60;;;6.60;99.90;;;;;;5030946;28;20303;-74
2023/03/26 05:09:31;;;;;;;3.00;1.52;;;6.60;99.90;;;;;;5029564;28;20727;-74
2023/03/26 05:11:58;;;;;;;4.40;1.83;;;6.60;99.90;;;;;;5030264;28;20206;-73
2023/03/26 05:14:25;;;;;;;2.75;1.25;;;6.60;99.90;;;;;;5031206;28;20209;-74
2023/03/26 05:16:53;;;;;;;5.18;1.75;;;6.60;99.90;;;;;;5030339;28;20201;-74
2023/03/26 05:19:21;;;;;;;3.10;1.10;;;6.60;99.90;;;;;;5030426;28;20217;-74
2023/03/26 05:21:48;;;;;;;3.05;1.10;;;6.60;99.90;;;;;;5030851;28;20234;-74
2023/03/26 05:24:14;;;;;;;2.20;1.00;;;6.60;99.90;;;;;;5030259;28;20205;-74
2023/03/26 05:26:41;;;;;;;2.78;1.70;;;6.60;99.90;;;;;;5029337;28;20201;-74
2023/03/26 05:29:08;;;;;;;2.47;1.30;;;6.60;99.90;;;;;;5029964;28;20217;-74
2023/03/26 05:31:35;;;;;;;2.78;1.35;;;6.60;99.90;;;;;;5029688;28;20698;-75
2023/03/26 05:34:02;;;;;;;2.40;1.30;;;6.60;99.90;;;;;;5030368;28;20202;-74
2023/03/26 05:36:30;;;;;;;2.30;1.60;;;6.60;99.90;;;;;;5029979;28;20537;-74
2023/03/26 05:38:58;;;;;;;1.60;1.30;;;6.60;99.90;;;;;;5029920;28;20189;-74
2023/03/26 05:41:24;;;;;;;1.67;1.17;;;6.60;99.90;;;;;;5029844;28;20208;-74
2023/03/26 05:43:51;;;;;;;4.80;1.45;;;6.60;99.90;;;;;;5029975;28;20676;-74
2023/03/26 05:46:19;;;;;;;1.85;1.38;;;6.60;99.90;;;;;;5031253;28;20955;-75
2023/03/26 05:48:46;;;;;;;3.97;1.20;;;6.70;99.90;;;;;;5045429;28;20247;-75
2023/03/26 05:51:14;;;;;;;4.65;1.50;;;6.70;99.90;;;;;;5053286;28;20287;-75
2023/03/26 05:53:43;;;;;;;2.30;1.55;;;6.70;99.90;;;;;;5053654;28;20197;-76
2023/03/26 05:56:10;;;;;;;3.65;1.40;;;6.70;99.90;;;;;;5053625;28;20201;-76
2023/03/26 05:58:37;;;;;;;2.85;1.92;;;6.60;99.90;;;;;;5052233;28;20817;-75
2023/03/26 06:01:07;;;;;;;3.25;1.90;;;6.60;99.90;;;;;;5052637;28;20256;-75
2023/03/26 06:03:35;;;;;;;2.03;1.65;;;6.70;99.90;;;;;;5052946;28;20201;-75
2023/03/26 06:06:03;;;;;;;4.78;1.38;;;6.80;99.90;;;;;;5051895;28;20201;-75
2023/03/26 06:08:31;;;;;;;2.85;1.60;;;6.80;99.90;;;;;;5051731;28;20675;-75
2023/03/26 06:11:04;;;;;;;1.42;1.15;;;6.80;99.90;;;;;;5052311;28;20220;-75
2023/03/26 06:13:31;;;;;;;2.42;1.50;;;6.80;99.90;;;;;;5052459;28;20197;-74
2023/03/26 06:15:57;;;;;;;1.98;1.20;;;6.80;99.90;;;;;;5052184;28;20204;-75
2023/03/26 06:18:25;;;;;;;3.08;1.40;;;6.80;99.90;;;;;;5051215;28;20228;-75
2023/03/26 06:20:52;;;;;;;2.05;1.42;;;6.90;99.90;;;;;;5052428;28;20220;-75
2023/03/26 06:23:19;;;;;;;4.90;1.50;;;6.90;99.90;;;;;;5056836;28;20233;-75
2023/03/26 06:25:46;;;;;;;2.35;1.20;;;6.90;99.90;;;;;;5057607;28;20193;-75
2023/03/26 06:28:15;;;;;;;1.55;1.30;;;6.90;99.90;;;;;;5058399;28;20213;-74
2023/03/26 06:30:42;;;;;;;1.45;0.90;;;6.90;99.90;;;;;;5038165;28;20234;-75
2023/03/26 06:33:09;;;;;;;3.60;1.77;;;7.00;99.90;;;;;;5048211;22;20221;-70
2023/03/26 06:35:36;;;;;;;5.55;1.55;;;6.90;99.90;;;;;;5032991;28;20603;-70
2023/03/26 06:38:04;;;;;;;3.53;1.58;;;6.90;99.90;;;;;;5032869;28;20194;-70
2023/03/26 06:40:30;;;;;;;2.45;1.42;;;6.90;99.90;;;;;;5032383;28;20225;-70
2023/03/26 06:42:57;;;;;;;2.97;1.48;;;6.90;99.90;;;;;;5032987;28;20562;-71
2023/03/26 06:45:25;;;;;;;9.60;1.55;;;6.90;99.90;;;;;;5032485;28;20202;-70
2023/03/26 06:47:52;;;;;;;2.85;1.30;;;6.90;99.90;;;;;;5031017;28;20783;-70
2023/03/26 06:50:19;;;;;;;2.70;1.10;;;6.90;99.90;;;;;;5028776;28;20230;-70
2023/03/26 06:52:46;;;;;;;3.75;1.50;;;7.00;99.90;;;;;;5039811;28;20201;-71
2023/03/26 06:55:12;;;;;;;1.98;1.30;;;7.00;99.90;;;;;;5048963;28;20668;-70
2023/03/26 06:57:39;;;;;;;4.03;1.77;;;7.10;99.90;;;;;;5046993;28;20581;-71
2023/03/26 07:00:07;;;;;;;1.98;1.42;;;7.10;99.90;;;;;;5049909;28;20216;-71
2023/03/26 07:02:36;;;;;;;3.67;1.50;;;7.10;99.90;;;;;;5049567;28;20684;-71
2023/03/26 07:05:03;;;;;;;3.83;1.65;;;7.10;99.90;;;;;;5051311;28;20204;-71
2023/03/26 07:07:30;;;;;;;3.25;1.30;;;7.10;99.90;;;;;;5051797;28;20201;-71
2023/03/26 07:09:56;;;;;;;2.55;1.40;;;7.10;99.90;;;;;;5051376;28;20220;-71
2023/03/26 07:12:23;;;;;;;1.77;1.63;;;7.20;99.90;;;;;;5050948;28;20205;-71
2023/03/26 07:14:50;;;;;;;2.10;1.25;;;7.20;99.90;;;;;;5031637;28;20206;-70
2023/03/26 07:17:17;;;;;;;2.30;1.35;;;7.20;99.90;;;;;;5031451;28;20202;-70
2023/03/26 07:19:45;;;;;;;1.50;1.30;;;7.20;99.90;;;;;;5031168;28;20248;-70
2023/03/26 07:22:18;;;;;;;1.80;1.30;;;7.20;99.90;;;;;;5025424;28;20205;-70
2023/03/26 07:24:46;;;;;;;3.08;1.35;;;7.20;99.90;;;;;;5031101;28;20210;-71
2023/03/26 07:27:24;;;;;;;2.30;1.40;;;7.20;99.90;;;;;;5046391;28;20200;-70
2023/03/26 07:29:59;;;;;;;2.25;1.30;;;7.20;99.90;;;;;;5051753;28;20687;-70
2023/03/26 07:32:32;;;;;;;2.40;1.50;;;7.20;99.90;;;;;;5050688;28;20671;-71
2023/03/26 07:35:06;;;;;;;3.90;1.45;;;7.30;99.90;;;;;;5051414;28;20578;-70
2023/03/26 07:37:45;;;;;;;1.40;1.25;;;7.30;99.90;;;;;;5050692;28;20580;-70
2023/03/26 07:40:28;;;;;;;4.00;1.73;;;7.30;99.90;;;;;;5038326;28;20594;-70
2023/03/26 07:43:07;;;;;;;2.63;1.25;;;7.30;99.90;;;;;;5030487;28;20244;-70
2023/03/26 07:45:39;;;;;;;2.55;1.33;;;7.30;99.90;;;;;;5047597;28;20208;-70
2023/03/26 07:48:12;;;;;;;2.30;1.20;;;7.30;99.90;;;;;;5050467;28;20205;-71
2023/03/26 07:50:41;;;;;;;3.75;1.77;;;7.20;99.90;;;;;;5048185;28;20227;-71
2023/03/26 07:53:08;;;;;;;1.80;1.35;;;7.20;99.90;;;;;;5030967;28;20206;-70
2023/03/26 07:55:39;;;;;;;2.78;1.55;;;7.20;99.90;;;;;;5029228;28;20206;-70
2023/03/26 07:58:23;;;;;;;3.70;1.65;;;7.10;99.90;;;;;;5029715;28;20205;-71
2023/03/26 08:00:56;;;;;;;1.25;1.15;;;7.10;99.90;;;;;;5028522;28;20225;-70
2023/03/26 08:03:37;;;;;;;2.03;1.20;;;7.00;99.90;;;;;;5029725;28;20213;-70
2023/03/26 08:06:15;;;;;;;1.80;1.23;;;7.00;99.90;;;;;;5034257;28;20209;-71
2023/03/26 08:08:48;;;;;;;3.47;1.20;;;6.90;99.90;;;;;;5039203;28;20308;-70
2023/03/26 08:11:28;;;;;;;3.00;1.27;;;6.90;99.90;;;;;;5029871;28;20229;-70
2023/03/26 08:14:05;;;;;;;5.25;1.83;;;6.90;99.90;;;;;;5022415;28;20396;-70
2023/03/26 08:16:37;;;;;;;2.03;1.52;;;6.90;99.90;;;;;;5028348;28;20264;-70
2023/03/26 08:19:15;;;;;;;1.85;1.42;;;6.90;99.90;;;;;;5030858;28;20565;-71
2023/03/26 08:21:47;;;;;;;2.97;1.80;;;6.90;99.90;;;;;;5031794;28;20205;-71
2023/03/26 08:24:21;;;;;;;2.85;1.75;;;6.90;99.90;;;;;;5049660;28;20205;-71
2023/03/26 08:26:54;;;;;;;1.73;1.40;;;7.00;99.90;;;;;;5029918;28;20229;-70
2023/03/26 08:29:29;;;;;;;2.55;1.75;;;7.00;99.90;;;;;;5039611;28;20225;-71
2023/03/26 08:31:56;;;;;;;2.85;1.52;;;7.00;99.90;;;;;;5045156;28;20302;-71
2023/03/26 08:34:23;;;;;;;4.43;1.30;;;7.00;99.90;;;;;;5022275;28;20273;-71
2023/03/26 08:36:51;;;;;;;3.63;1.40;;;7.00;99.90;;;;;;5026845;28;20210;-71
2023/03/26 08:39:18;;;;;;;4.10;1.55;;;7.00;99.90;;;;;;5026331;28;20755;-71
2023/03/26 08:42:12;;;;;;;2.58;1.65;;;7.00;99.90;;;;;;5026133;28;20548;-71
2023/03/26 08:45:31;;;;;;;4.03;1.42;;;7.10;99.90;;;;;;5023635;28;20309;-70
2023/03/26 08:48:37;;;;;;;2.70;1.70;;;7.30;99.90;;;;;;5009681;28;20299;-71
2023/03/26 08:51:26;;;;;;;4.53;1.77;;;7.40;99.90;;;;;;5006517;28;20598;-71
2023/03/26 08:54:32;;;;;;;1.40;1.30;;;7.50;99.90;;;;;;5020242;28;20271;-72
2023/03/26 08:57:18;;;;;;;4.75;1.58;;;7.60;99.90;;;;;;5018200;28;20209;-71
2023/03/26 09:00:16;;;;;;;1.88;1.40;;;7.70;99.90;;;;;;5028991;28;20763;-71
2023/03/26 09:03:07;;;;;;;2.50;1.70;;;7.60;99.90;;;;;;5029569;28;20217;-71
2023/03/26 09:06:10;;;;;;;3.00;2.15;;;7.60;99.90;;;;;;5028472;28;20213;-72
2023/03/26 09:09:29;;;;;;;3.30;1.33;;;7.70;99.90;;;;;;5024788;28;20205;-71
2023/03/26 09:12:17;;;;;;;4.97;1.65;;;8.10;99.90;;;;;;5027551;28;20202;-71
2023/03/26 09:15:27;;;;;;;3.50;1.70;;;8.50;99.90;;;;;;5026762;28;20206;-71
2023/03/26 09:18:26;;;;;;;1.58;1.45;;;8.50;99.90;;;;;;4996585;28;20208;-71
2023/03/26 09:21:17;;;;;;;1.23;1.10;;;8.90;99.90;;;;;;5029081;28;20218;-71
2023/03/26 09:24:30;;;;;;;2.80;1.50;;;9.80;99.90;;;;;;5028921;28;20600;-73
2023/03/26 09:27:07;;;;;;;1.40;1.30;;;10.90;99.90;;;;;;5006574;28;20657;-72
2023/03/26 09:30:19;;;;;;;1.92;1.00;;;11.00;99.90;;;;;;5025152;28;20229;-73
2023/03/26 09:33:22;;;;;;;2.10;1.27;;;10.80;99.90;;;;;;5028567;28;20213;-73
2023/03/26 09:35:55;;;;;;;4.28;1.60;;;12.30;99.90;;;;;;5013592;28;20213;-72
2023/03/26 09:38:41;;;;;;;1.90;1.25;;;12.40;99.90;;;;;;5023725;28;20210;-73
2023/03/26 09:41:14;;;;;;;3.65;1.20;;;13.00;99.90;;;;;;5016765;28;20726;-72
2023/03/26 09:44:15;;;;;;;2.38;1.50;;;13.90;99.90;;;;;;5019942;28;20287;-72
2023/03/26 09:46:53;;;;;;;1.40;1.00;;;14.00;99.90;;;;;;5048415;28;20582;-72
2023/03/26 09:49:48;;;;;;;2.57;1.20;;;15.60;99.90;;;;;;5026098;28;20225;-72
2023/03/26 09:52:52;;;;;;;1.47;1.00;;;17.40;99.90;;;;;;5026842;28;20483;-72
2023/03/26 09:55:42;;;;;;;1.70;1.30;;;18.70;99.90;;;;;;5026747;28;20479;-72
2023/03/26 09:58:41;;;;;;;1.33;1.00;;;17.50;99.90;;;;;;5030876;28;20525;-70
2023/03/26 10:01:14;;;;;;;3.77;1.00;;;17.70;99.90;;;;;;5027578;28;20487;-72
2023/03/26 10:03:53;;;;;;;1.33;1.00;;;17.30;99.90;;;;;;5038825;28;20468;-72
2023/03/26 10:06:35;;;;;;;1.50;0.90;;;16.70;99.90;;;;;;5040574;28;20974;-73
2023/03/26 10:09:16;;;;;;;0.90;0.80;;;16.20;99.90;;;;;;5031282;28;20977;-72
2023/03/26 10:11:56;;;;;;;1.20;0.80;;;15.30;99.90;;;;;;5027506;28;20474;-72
2023/03/26 10:14:32;;;;;;;3.63;1.30;;;14.00;99.90;;;;;;5032501;28;20491;-72
2023/03/26 10:17:08;;;;;;;2.83;1.03;;;14.30;99.90;;;;;;5027580;28;20463;-72
2023/03/26 10:19:49;;;;;;;1.97;1.13;;;15.30;99.90;;;;;;5031342;28;21526;-72
2023/03/26 10:22:30;;;;;;;0.90;0.80;;;16.50;99.90;;;;;;5026810;28;20460;-72
2023/03/26 10:25:28;;;;;;;1.00;0.87;;;17.10;99.20;;;;;;5030491;28;20830;-73
2023/03/26 10:28:06;;;;;;;1.30;0.90;;;17.20;99.90;;;;;;5030816;28;20873;-72
2023/03/26 10:31:19;;;;;;;1.10;0.90;;;16.60;98.70;;;;;;5031982;28;21324;-72
2023/03/26 10:33:59;;;;;;;2.60;0.83;;;15.90;99.80;;;;;;5012554;28;20460;-72
2023/03/26 10:36:30;;;;;;;1.87;1.20;;;14.90;97.50;;;;;;5032850;28;20466;-72
2023/03/26 10:39:22;;;;;;;2.60;0.90;;;14.30;98.20;;;;;;5030656;28;20486;-72
2023/03/26 10:41:56;;;;;;;1.80;1.20;;;13.90;99.30;;;;;;5041376;28;20532;-72
2023/03/26 10:44:49;;;;;;;2.03;1.13;;;13.90;99.90;;;;;;5052474;28;20473;-72
2023/03/26 10:48:00;;;;;;;0.97;0.87;;;15.20;99.00;;;;;;5052053;28;20459;-72
2023/03/26 10:50:42;;;;;;;0.93;0.70;;;16.60;98.00;;;;;;5005244;28;20499;-73
2023/03/26 10:53:18;;;;;;;1.70;0.83;;;18.00;96.30;;;;;;5028253;28;20466;-73
2023/03/26 10:55:51;;;;;;;1.40;1.00;;;18.70;95.70;;;;;;5047412;28;20463;-70
2023/03/26 10:58:23;;;;;;;1.30;0.70;;;19.70;94.40;;;;;;5044188;28;20816;-72
2023/03/26 11:00:57;;;;;;;1.37;1.10;;;20.10;93.40;;;;;;5031508;28;21056;-71
2023/03/26 11:03:43;;;;;;;3.13;1.10;;;20.30;93.20;;;;;;5031308;28;20469;-70
2023/03/26 11:06:29;;;;;;;1.63;0.93;;;20.10;92.90;;;;;;5031438;28;20459;-70
2023/03/26 11:09:08;;;;;;;1.00;0.80;;;20.30;93.50;;;;;;5040038;28;20554;-71
2023/03/26 11:11:43;;;;;;;1.50;0.80;;;20.70;91.90;;;;;;5030559;28;20834;-71
2023/03/26 11:14:16;;;;;;;1.77;1.10;;;20.00;91.90;;;;;;5031636;28;21161;-71
2023/03/26 11:16:55;;;;;;;1.23;0.83;;;19.70;91.20;;;;;;5031605;28;20488;-71
2023/03/26 11:19:26;;;;;;;1.00;0.70;;;18.90;91.80;;;;;;5051485;28;20491;-70
2023/03/26 11:22:00;;;;;;;1.43;0.90;;;19.10;91.60;;;;;;5047003;28;20483;-71
2023/03/26 11:24:48;;;;;;;2.20;0.83;;;18.50;91.10;;;;;;5049545;28;20467;-71
2023/03/26 11:27:22;;;;;;;2.93;1.20;;;18.10;91.90;;;;;;5022641;28;20475;-71
2023/03/26 11:29:59;;;;;;;1.20;1.10;;;19.00;92.80;;;;;;5024663;28;20492;-70
2023/03/26 11:32:31;;;;;;;1.17;0.90;;;20.30;90.90;;;;;;5029988;28;20884;-71
2023/03/26 11:35:04;;;;;;;1.23;1.00;;;21.50;89.80;;;;;;5030475;28;20471;-70
2023/03/26 11:37:36;;;;;;;1.20;1.00;;;22.80;88.10;;;;;;5030039;28;20552;-70
2023/03/26 11:40:13;;;;;;;1.40;0.90;;;23.40;84.40;;;;;;5030302;28;20543;-70
2023/03/26 11:42:41;;;;;;;1.20;0.80;;;21.90;83.80;;;;;;5038588;28;20467;-70
2023/03/26 11:45:16;;;;;;;1.10;1.00;;;21.60;87.00;;;;;;5045697;28;20867;-70
2023/03/26 11:47:47;;;;;;;1.07;0.90;;;21.50;83.00;;;;;;5030349;28;20470;-70
2023/03/26 11:50:18;;;;;;;1.90;0.80;;;21.00;84.20;;;;;;5031473;28;20501;-70
2023/03/26 11:52:46;;;;;;;2.40;1.93;;;20.70;84.60;;;;;;5030901;28;20839;-71
2023/03/26 11:55:14;;;;;;;1.17;0.90;;;20.70;83.50;;;;;;5030123;28;20560;-71
2023/03/26 11:57:46;;;;;;;2.53;1.10;;;20.50;82.60;;;;;;5029086;28;20471;-70
2023/03/26 12:00:16;;;;;;;1.10;0.90;;;20.70;83.70;;;;;;5028973;28;20476;-70
2023/03/26 12:02:44;;;;;;;1.37;0.77;;;21.00;82.50;;;;;;5043045;28;20467;-70
2023/03/26 12:05:16;;;;;;;1.50;1.10;;;20.40;82.50;;;;;;5025501;28;20476;-70
2023/03/26 12:07:52;;;;;;;1.10;0.83;;;20.60;84.10;;;;;;5026483;28;20496;-70
2023/03/26 12:10:25;;;;;;;3.83;1.00;;;21.40;80.90;;;;;;5030085;28;20633;-70
2023/03/26 12:12:55;;;;;;;1.10;0.83;;;21.40;81.40;;;;;;5030329;28;20468;-71
2023/03/26 12:15:22;;;;;;;1.10;0.90;;;21.50;80.40;;;;;;5030210;28;20465;-71
2023/03/26 12:17:52;;;;;;;1.60;0.93;;;21.60;77.90;;;;;;5029746;28;20458;-71
2023/03/26 12:20:41;;;;;;;1.70;0.90;;;21.50;78.10;;;;;;5029474;28;20559;-70
2023/03/26 12:23:37;;;;;;;1.63;1.23;;;21.90;75.80;;;;;;5027532;28;20522;-70
2023/03/26 12:26:11;;;;;;;1.57;1.00;;;22.00;75.30;;;;;;5029862;28;20475;-70
2023/03/26 12:28:44;;;;;;;1.87;0.90;;;21.50;75.40;;;;;;5029823;28;20459;-70
2023/03/26 12:31:17;;;;;;;1.60;1.03;;;21.10;74.60;;;;;;5033093;28;20555;-72
2023/03/26 12:34:05;;;;;;;2.23;0.90;;;20.40;76.80;;;;;;5055294;23;20476;-92
2023/03/26 12:36:52;;;;;;;1.67;0.90;;;20.70;76.30;;;;;;5045127;28;20492;-92
2023/03/26 12:39:33;;;;;;;1.30;1.17;;;20.40;75.60;;;;;;5038941;28;20469;-91
2023/03/26 12:42:06;;;;;;;1.60;0.90;;;20.10;77.10;;;;;;5042789;28;20468;-91
2023/03/26 12:44:42;;;;;;;1.07;0.80;;;20.20;77.30;;;;;;5055815;28;20480;-93
2023/03/26 12:47:15;;;;;;;1.73;0.93;;;20.20;76.90;;;;;;5050924;28;20463;-92
2023/03/26 12:49:48;;;;;;;1.20;0.87;;;20.50;77.10;;;;;;5062816;28;20498;-92
2023/03/26 12:52:32;;;;;;;1.23;1.00;;;21.00;77.80;;;;;;5040025;28;20469;-92
2023/03/26 12:55:07;;;;;;;1.63;1.00;;;21.40;77.30;;;;;;5043109;28;20487;-92
2023/03/26 12:57:39;;;;;;;1.80;0.93;;;21.50;76.30;;;;;;5036876;28;20464;-93
2023/03/26 13:00:25;;;;;;;1.33;0.93;;;21.40;73.20;;;;;;5046792;28;20490;-93
2023/03/26 13:03:15;;;;;;;2.27;0.90;;;21.50;74.30;;;;;;5038738;28;20461;-92
2023/03/26 13:05:59;;;;;;;1.73;1.37;;;21.30;73.80;;;;;;5039693;28;20460;-94
2023/03/26 13:09:03;;;;;;;2.00;1.13;;;20.60;74.30;;;;;;5046560;28;20468;-92
2023/03/26 13:11:41;;;;;;;1.30;1.10;;;20.30;75.10;;;;;;5038079;28;20518;-92
2023/03/26 13:14:26;;;;;;;1.10;1.00;;;20.80;75.70;;;;;;5039139;28;20480;-92
2023/03/26 13:16:58;;;;;;;1.17;0.90;;;21.30;75.70;;;;;;5043259;28;20468;-92
2023/03/26 13:19:33;;;;;;;2.07;0.93;;;20.80;73.50;;;;;;5042161;28;20463;-92
2023/03/26 13:22:15;;;;;;;1.20;0.80;;;20.70;70.90;;;;;;5045322;28;20461;-93
2023/03/26 13:24:53;;;;;;;1.27;1.03;;;20.30;70.90;;;;;;5045799;28;20487;-92
2023/03/26 13:27:35;;;;;;;1.37;1.03;;;20.60;73.30;;;;;;5039642;28;20469;-92
2023/03/26 13:30:24;;;;;;;1.50;1.03;;;20.40;72.70;;;;;;5045835;28;20886;-94